sensor_id;sensor_type;location;lat;lon;timestamp;P1;durP1;ratioP1;P2;durP2;ratioP2
28246;SDS011;66191;53.178;22.058;2023-01-05T00:00:03;16.98;;;9.80;;
28246;SDS011;66191;53.178;22.058;2023-01-05T00:03:03;13.68;;;8.95;;
28246;SDS011;66191;53.178;22.058;2023-01-05T00:05:34;13.43;;;9.43;;
28246;SDS011;66191;53.178;22.058;2023-01-05T00:08:05;10.98;;;7.68;;
28246;SDS011;66191;53.178;22.058;2023-01-05T00:13:31;11.90;;;7.90;;
28246;SDS011;66191;53.178;22.058;2023-01-05T00:16:17;11.73;;;7.88;;
28246;SDS011;66191;53.178;22.058;2023-01-05T00:19:04;9.70;;;7.05;;
28246;SDS011;66191;53.178;22.058;2023-01-05T00:21:47;13.77;;;7.22;;
28246;SDS011;66191;53.178;22.058;2023-01-05T00:24:31;11.77;;;8.05;;
28246;SDS011;66191;53.178;22.058;2023-01-05T00:27:01;13.18;;;8.10;;
28246;SDS011;66191;53.178;22.058;2023-01-05T00:29:32;11.15;;;7.05;;
28246;SDS011;66191;53.178;22.058;2023-01-05T00:32:04;12.02;;;7.90;;
28246;SDS011;66191;53.178;22.058;2023-01-05T00:34:38;10.02;;;7.00;;
28246;SDS011;66191;53.178;22.058;2023-01-05T00:37:10;10.43;;;7.25;;
28246;SDS011;66191;53.178;22.058;2023-01-05T00:39:41;12.57;;;7.18;;
28246;SDS011;66191;53.178;22.058;2023-01-05T00:44:43;11.77;;;8.07;;
28246;SDS011;66191;53.178;22.058;2023-01-05T00:47:14;12.02;;;8.15;;
28246;SDS011;66191;53.178;22.058;2023-01-05T00:49:48;14.20;;;8.75;;
28246;SDS011;66191;53.178;22.058;2023-01-05T00:52:19;10.85;;;7.40;;
28246;SDS011;66191;53.178;22.058;2023-01-05T00:54:50;14.32;;;10.02;;
28246;SDS011;66191;53.178;22.058;2023-01-05T00:57:21;12.77;;;9.35;;
28246;SDS011;66191;53.178;22.058;2023-01-05T00:59:54;12.88;;;9.18;;
28246;SDS011;66191;53.178;22.058;2023-01-05T01:02:24;30.00;;;10.35;;
28246;SDS011;66191;53.178;22.058;2023-01-05T01:04:58;15.45;;;9.70;;
28246;SDS011;66191;53.178;22.058;2023-01-05T01:07:30;15.32;;;11.32;;
28246;SDS011;66191;53.178;22.058;2023-01-05T01:10:04;14.98;;;10.70;;
28246;SDS011;66191;53.178;22.058;2023-01-05T01:12:35;16.45;;;11.13;;
28246;SDS011;66191;53.178;22.058;2023-01-05T01:15:07;16.55;;;11.10;;
28246;SDS011;66191;53.178;22.058;2023-01-05T01:17:41;17.13;;;11.68;;
28246;SDS011;66191;53.178;22.058;2023-01-05T01:20:16;16.88;;;12.35;;
28246;SDS011;66191;53.178;22.058;2023-01-05T01:22:46;16.88;;;11.85;;
28246;SDS011;66191;53.178;22.058;2023-01-05T01:25:19;17.15;;;12.57;;
28246;SDS011;66191;53.178;22.058;2023-01-05T01:27:50;15.45;;;11.45;;
28246;SDS011;66191;53.178;22.058;2023-01-05T01:30:21;20.38;;;13.48;;
28246;SDS011;66191;53.178;22.058;2023-01-05T01:32:52;18.35;;;12.57;;
28246;SDS011;66191;53.178;22.058;2023-01-05T01:35:27;19.88;;;13.35;;
28246;SDS011;66191;53.178;22.058;2023-01-05T01:37:58;19.33;;;13.27;;
28246;SDS011;66191;53.178;22.058;2023-01-05T01:40:29;21.23;;;14.05;;
28246;SDS011;66191;53.178;22.058;2023-01-05T01:43:02;21.05;;;14.82;;
28246;SDS011;66191;53.178;22.058;2023-01-05T01:45:42;22.83;;;14.60;;
28246;SDS011;66191;53.178;22.058;2023-01-05T01:48:14;19.60;;;13.35;;
28246;SDS011;66191;53.178;22.058;2023-01-05T01:50:50;19.02;;;12.80;;
28246;SDS011;66191;53.178;22.058;2023-01-05T01:53:26;20.55;;;14.35;;
28246;SDS011;66191;53.178;22.058;2023-01-05T01:56:00;23.33;;;15.43;;
28246;SDS011;66191;53.178;22.058;2023-01-05T01:58:36;19.38;;;14.13;;
28246;SDS011;66191;53.178;22.058;2023-01-05T02:01:08;21.00;;;14.75;;
28246;SDS011;66191;53.178;22.058;2023-01-05T02:03:41;20.67;;;14.35;;
28246;SDS011;66191;53.178;22.058;2023-01-05T02:06:16;24.10;;;15.93;;
28246;SDS011;66191;53.178;22.058;2023-01-05T02:08:47;20.77;;;15.75;;
28246;SDS011;66191;53.178;22.058;2023-01-05T02:11:28;24.10;;;17.13;;
28246;SDS011;66191;53.178;22.058;2023-01-05T02:14:20;19.75;;;15.35;;
28246;SDS011;66191;53.178;22.058;2023-01-05T02:17:05;22.40;;;16.13;;
28246;SDS011;66191;53.178;22.058;2023-01-05T02:19:54;23.83;;;15.93;;
28246;SDS011;66191;53.178;22.058;2023-01-05T02:23:05;21.05;;;15.32;;
28246;SDS011;66191;53.178;22.058;2023-01-05T02:26:09;19.52;;;14.00;;
28246;SDS011;66191;53.178;22.058;2023-01-05T02:29:10;20.25;;;14.85;;
28246;SDS011;66191;53.178;22.058;2023-01-05T02:32:02;20.42;;;14.98;;
28246;SDS011;66191;53.178;22.058;2023-01-05T02:34:38;19.45;;;14.65;;
28246;SDS011;66191;53.178;22.058;2023-01-05T02:37:17;23.52;;;16.48;;
28246;SDS011;66191;53.178;22.058;2023-01-05T02:39:56;18.63;;;14.55;;
28246;SDS011;66191;53.178;22.058;2023-01-05T02:42:36;19.50;;;14.55;;
28246;SDS011;66191;53.178;22.058;2023-01-05T02:45:13;17.75;;;14.00;;
28246;SDS011;66191;53.178;22.058;2023-01-05T02:47:48;18.50;;;13.75;;
28246;SDS011;66191;53.178;22.058;2023-01-05T02:50:20;23.02;;;16.05;;
28246;SDS011;66191;53.178;22.058;2023-01-05T02:52:58;18.30;;;13.43;;
28246;SDS011;66191;53.178;22.058;2023-01-05T02:55:34;19.98;;;14.27;;
28246;SDS011;66191;53.178;22.058;2023-01-05T02:58:09;20.50;;;14.93;;
28246;SDS011;66191;53.178;22.058;2023-01-05T03:00:45;21.50;;;15.50;;
28246;SDS011;66191;53.178;22.058;2023-01-05T03:03:27;21.70;;;13.77;;
28246;SDS011;66191;53.178;22.058;2023-01-05T03:06:02;22.20;;;15.93;;
28246;SDS011;66191;53.178;22.058;2023-01-05T03:08:38;20.40;;;14.55;;
28246;SDS011;66191;53.178;22.058;2023-01-05T03:11:19;21.83;;;15.43;;
28246;SDS011;66191;53.178;22.058;2023-01-05T03:14:05;17.70;;;12.30;;
28246;SDS011;66191;53.178;22.058;2023-01-05T03:16:40;14.50;;;11.93;;
28246;SDS011;66191;53.178;22.058;2023-01-05T03:19:18;20.77;;;14.27;;
28246;SDS011;66191;53.178;22.058;2023-01-05T03:22:13;15.50;;;12.55;;
28246;SDS011;66191;53.178;22.058;2023-01-05T03:25:03;17.85;;;12.57;;
28246;SDS011;66191;53.178;22.058;2023-01-05T03:27:48;21.60;;;14.25;;
28246;SDS011;66191;53.178;22.058;2023-01-05T03:30:34;18.33;;;12.85;;
28246;SDS011;66191;53.178;22.058;2023-01-05T03:33:24;16.35;;;12.10;;
28246;SDS011;66191;53.178;22.058;2023-01-05T03:36:15;15.98;;;12.10;;
28246;SDS011;66191;53.178;22.058;2023-01-05T03:38:51;15.55;;;12.20;;
28246;SDS011;66191;53.178;22.058;2023-01-05T03:41:26;17.95;;;12.05;;
28246;SDS011;66191;53.178;22.058;2023-01-05T03:43:58;14.35;;;11.85;;
28246;SDS011;66191;53.178;22.058;2023-01-05T03:46:32;15.07;;;10.73;;
28246;SDS011;66191;53.178;22.058;2023-01-05T03:49:04;13.77;;;10.65;;
28246;SDS011;66191;53.178;22.058;2023-01-05T03:51:38;12.15;;;9.63;;
28246;SDS011;66191;53.178;22.058;2023-01-05T03:54:10;13.25;;;9.40;;
28246;SDS011;66191;53.178;22.058;2023-01-05T03:56:42;15.73;;;10.75;;
28246;SDS011;66191;53.178;22.058;2023-01-05T03:59:13;15.50;;;10.65;;
28246;SDS011;66191;53.178;22.058;2023-01-05T04:01:44;13.65;;;9.20;;
28246;SDS011;66191;53.178;22.058;2023-01-05T04:04:16;13.50;;;9.60;;
28246;SDS011;66191;53.178;22.058;2023-01-05T04:06:50;12.07;;;8.27;;
28246;SDS011;66191;53.178;22.058;2023-01-05T04:09:22;13.15;;;8.40;;
28246;SDS011;66191;53.178;22.058;2023-01-05T04:14:24;16.30;;;7.95;;
28246;SDS011;66191;53.178;22.058;2023-01-05T04:16:58;19.55;;;9.25;;
28246;SDS011;66191;53.178;22.058;2023-01-05T04:19:29;14.70;;;6.95;;
28246;SDS011;66191;53.178;22.058;2023-01-05T04:22:03;17.73;;;7.22;;
28246;SDS011;66191;53.178;22.058;2023-01-05T04:24:35;16.77;;;7.15;;
28246;SDS011;66191;53.178;22.058;2023-01-05T04:27:05;15.23;;;7.18;;
28246;SDS011;66191;53.178;22.058;2023-01-05T04:29:37;16.42;;;7.32;;
28246;SDS011;66191;53.178;22.058;2023-01-05T04:32:09;11.77;;;5.80;;
28246;SDS011;66191;53.178;22.058;2023-01-05T04:34:40;16.75;;;5.97;;
28246;SDS011;66191;53.178;22.058;2023-01-05T04:37:14;14.57;;;6.15;;
28246;SDS011;66191;53.178;22.058;2023-01-05T04:39:46;16.17;;;7.47;;
28246;SDS011;66191;53.178;22.058;2023-01-05T04:42:17;16.23;;;6.68;;
28246;SDS011;66191;53.178;22.058;2023-01-05T04:44:53;15.80;;;7.03;;
28246;SDS011;66191;53.178;22.058;2023-01-05T04:47:24;18.73;;;8.48;;
28246;SDS011;66191;53.178;22.058;2023-01-05T04:49:56;17.85;;;9.50;;
28246;SDS011;66191;53.178;22.058;2023-01-05T04:52:30;13.60;;;7.95;;
28246;SDS011;66191;53.178;22.058;2023-01-05T04:55:02;13.93;;;7.18;;
28246;SDS011;66191;53.178;22.058;2023-01-05T04:57:34;13.88;;;6.90;;
28246;SDS011;66191;53.178;22.058;2023-01-05T05:00:07;14.68;;;6.95;;
28246;SDS011;66191;53.178;22.058;2023-01-05T05:02:40;9.55;;;5.35;;
28246;SDS011;66191;53.178;22.058;2023-01-05T05:05:14;8.13;;;4.88;;
28246;SDS011;66191;53.178;22.058;2023-01-05T05:07:51;11.77;;;6.82;;
28246;SDS011;66191;53.178;22.058;2023-01-05T05:10:27;13.50;;;7.82;;
28246;SDS011;66191;53.178;22.058;2023-01-05T05:13:00;16.77;;;8.80;;
28246;SDS011;66191;53.178;22.058;2023-01-05T05:15:31;14.68;;;6.95;;
28246;SDS011;66191;53.178;22.058;2023-01-05T05:18:03;16.77;;;7.25;;
28246;SDS011;66191;53.178;22.058;2023-01-05T05:20:39;16.00;;;7.30;;
28246;SDS011;66191;53.178;22.058;2023-01-05T05:23:15;15.00;;;8.02;;
28246;SDS011;66191;53.178;22.058;2023-01-05T05:25:48;17.23;;;7.68;;
28246;SDS011;66191;53.178;22.058;2023-01-05T05:28:22;20.38;;;7.82;;
28246;SDS011;66191;53.178;22.058;2023-01-05T05:30:54;13.35;;;7.18;;
28246;SDS011;66191;53.178;22.058;2023-01-05T05:35:57;11.32;;;6.55;;
28246;SDS011;66191;53.178;22.058;2023-01-05T05:38:30;11.85;;;6.80;;
28246;SDS011;66191;53.178;22.058;2023-01-05T05:41:01;12.43;;;6.65;;
28246;SDS011;66191;53.178;22.058;2023-01-05T05:43:32;12.43;;;6.82;;
28246;SDS011;66191;53.178;22.058;2023-01-05T05:46:04;8.98;;;5.25;;
28246;SDS011;66191;53.178;22.058;2023-01-05T05:48:34;7.53;;;5.22;;
28246;SDS011;66191;53.178;22.058;2023-01-05T05:51:06;6.30;;;4.03;;
28246;SDS011;66191;53.178;22.058;2023-01-05T05:53:39;7.88;;;4.07;;
28246;SDS011;66191;53.178;22.058;2023-01-05T05:56:11;7.63;;;5.00;;
28246;SDS011;66191;53.178;22.058;2023-01-05T06:03:44;8.95;;;5.47;;
28246;SDS011;66191;53.178;22.058;2023-01-05T06:06:15;10.20;;;5.38;;
28246;SDS011;66191;53.178;22.058;2023-01-05T06:08:49;6.35;;;4.35;;
28246;SDS011;66191;53.178;22.058;2023-01-05T06:11:20;7.72;;;5.47;;
28246;SDS011;66191;53.178;22.058;2023-01-05T06:16:21;7.90;;;3.92;;
28246;SDS011;66191;53.178;22.058;2023-01-05T06:18:52;6.97;;;4.28;;
28246;SDS011;66191;53.178;22.058;2023-01-05T06:21:23;7.70;;;4.00;;
28246;SDS011;66191;53.178;22.058;2023-01-05T06:23:57;17.30;;;8.60;;
28246;SDS011;66191;53.178;22.058;2023-01-05T06:26:28;21.15;;;8.15;;
28246;SDS011;66191;53.178;22.058;2023-01-05T06:28:59;7.63;;;4.00;;
28246;SDS011;66191;53.178;22.058;2023-01-05T06:31:31;8.57;;;4.93;;
28246;SDS011;66191;53.178;22.058;2023-01-05T06:34:02;25.48;;;9.82;;
28246;SDS011;66191;53.178;22.058;2023-01-05T06:36:34;26.95;;;12.13;;
28246;SDS011;66191;53.178;22.058;2023-01-05T06:39:08;62.42;;;26.52;;
28246;SDS011;66191;53.178;22.058;2023-01-05T06:41:39;58.13;;;25.42;;
28246;SDS011;66191;53.178;22.058;2023-01-05T06:44:10;20.05;;;11.57;;
28246;SDS011;66191;53.178;22.058;2023-01-05T06:46:42;10.93;;;5.35;;
28246;SDS011;66191;53.178;22.058;2023-01-05T06:49:13;6.65;;;3.67;;
28246;SDS011;66191;53.178;22.058;2023-01-05T06:51:45;9.20;;;4.90;;
28246;SDS011;66191;53.178;22.058;2023-01-05T06:54:18;8.48;;;5.20;;
28246;SDS011;66191;53.178;22.058;2023-01-05T06:56:49;9.32;;;5.90;;
28246;SDS011;66191;53.178;22.058;2023-01-05T06:59:20;7.07;;;4.38;;
28246;SDS011;66191;53.178;22.058;2023-01-05T07:01:52;8.20;;;4.10;;
28246;SDS011;66191;53.178;22.058;2023-01-05T07:04:24;7.45;;;3.85;;
28246;SDS011;66191;53.178;22.058;2023-01-05T07:06:55;6.72;;;3.40;;
28246;SDS011;66191;53.178;22.058;2023-01-05T07:12:00;7.78;;;3.60;;
28246;SDS011;66191;53.178;22.058;2023-01-05T07:14:30;7.93;;;4.32;;
28246;SDS011;66191;53.178;22.058;2023-01-05T07:17:02;9.07;;;4.70;;
28246;SDS011;66191;53.178;22.058;2023-01-05T07:19:34;7.90;;;3.50;;
28246;SDS011;66191;53.178;22.058;2023-01-05T07:22:05;4.25;;;3.58;;
28246;SDS011;66191;53.178;22.058;2023-01-05T07:24:39;4.90;;;3.13;;
28246;SDS011;66191;53.178;22.058;2023-01-05T07:27:11;7.07;;;3.95;;
28246;SDS011;66191;53.178;22.058;2023-01-05T07:32:14;7.55;;;4.55;;
28246;SDS011;66191;53.178;22.058;2023-01-05T07:34:46;6.25;;;3.80;;
28246;SDS011;66191;53.178;22.058;2023-01-05T07:37:23;6.82;;;4.22;;
28246;SDS011;66191;53.178;22.058;2023-01-05T07:39:57;9.35;;;5.28;;
28246;SDS011;66191;53.178;22.058;2023-01-05T07:42:28;7.97;;;4.70;;
28246;SDS011;66191;53.178;22.058;2023-01-05T07:45:00;8.10;;;4.85;;
28246;SDS011;66191;53.178;22.058;2023-01-05T07:47:33;8.07;;;5.13;;
28246;SDS011;66191;53.178;22.058;2023-01-05T07:50:05;15.93;;;7.68;;
28246;SDS011;66191;53.178;22.058;2023-01-05T07:52:38;11.95;;;7.60;;
28246;SDS011;66191;53.178;22.058;2023-01-05T07:55:12;12.50;;;8.32;;
28246;SDS011;66191;53.178;22.058;2023-01-05T07:57:45;18.52;;;10.23;;
28246;SDS011;66191;53.178;22.058;2023-01-05T08:00:17;15.00;;;9.27;;
28246;SDS011;66191;53.178;22.058;2023-01-05T08:02:49;10.52;;;7.10;;
28246;SDS011;66191;53.178;22.058;2023-01-05T08:05:20;8.27;;;5.63;;
28246;SDS011;66191;53.178;22.058;2023-01-05T08:07:56;9.63;;;5.43;;
28246;SDS011;66191;53.178;22.058;2023-01-05T08:10:30;8.88;;;5.95;;
28246;SDS011;66191;53.178;22.058;2023-01-05T08:13:02;8.82;;;5.25;;
28246;SDS011;66191;53.178;22.058;2023-01-05T08:15:46;7.80;;;6.13;;
28246;SDS011;66191;53.178;22.058;2023-01-05T08:18:18;9.02;;;6.13;;
28246;SDS011;66191;53.178;22.058;2023-01-05T08:20:50;9.55;;;6.63;;
28246;SDS011;66191;53.178;22.058;2023-01-05T08:23:22;12.27;;;7.20;;
28246;SDS011;66191;53.178;22.058;2023-01-05T08:26:01;9.60;;;6.53;;
28246;SDS011;66191;53.178;22.058;2023-01-05T08:28:35;17.63;;;10.95;;
28246;SDS011;66191;53.178;22.058;2023-01-05T08:31:09;15.07;;;9.10;;
28246;SDS011;66191;53.178;22.058;2023-01-05T08:33:43;10.35;;;6.38;;
28246;SDS011;66191;53.178;22.058;2023-01-05T08:36:15;10.32;;;6.15;;
28246;SDS011;66191;53.178;22.058;2023-01-05T08:38:49;13.45;;;6.78;;
28246;SDS011;66191;53.178;22.058;2023-01-05T08:41:25;10.88;;;6.20;;
28246;SDS011;66191;53.178;22.058;2023-01-05T08:43:57;10.18;;;5.38;;
28246;SDS011;66191;53.178;22.058;2023-01-05T08:46:31;12.00;;;6.18;;
28246;SDS011;66191;53.178;22.058;2023-01-05T08:49:04;11.85;;;6.75;;
28246;SDS011;66191;53.178;22.058;2023-01-05T08:51:37;9.85;;;5.57;;
28246;SDS011;66191;53.178;22.058;2023-01-05T08:54:08;11.55;;;5.82;;
28246;SDS011;66191;53.178;22.058;2023-01-05T08:56:41;13.32;;;7.05;;
28246;SDS011;66191;53.178;22.058;2023-01-05T08:59:15;12.23;;;6.20;;
28246;SDS011;66191;53.178;22.058;2023-01-05T09:01:46;12.43;;;6.18;;
28246;SDS011;66191;53.178;22.058;2023-01-05T09:04:17;8.13;;;5.10;;
28246;SDS011;66191;53.178;22.058;2023-01-05T09:06:49;20.65;;;8.48;;
28246;SDS011;66191;53.178;22.058;2023-01-05T09:09:20;9.10;;;4.90;;
28246;SDS011;66191;53.178;22.058;2023-01-05T09:11:53;10.25;;;5.80;;
28246;SDS011;66191;53.178;22.058;2023-01-05T09:14:24;16.42;;;8.32;;
28246;SDS011;66191;53.178;22.058;2023-01-05T09:19:35;11.40;;;5.60;;
28246;SDS011;66191;53.178;22.058;2023-01-05T09:22:06;8.63;;;4.65;;
28246;SDS011;66191;53.178;22.058;2023-01-05T09:24:37;9.68;;;4.15;;
28246;SDS011;66191;53.178;22.058;2023-01-05T09:27:11;8.63;;;4.28;;
28246;SDS011;66191;53.178;22.058;2023-01-05T09:29:42;11.88;;;4.35;;
28246;SDS011;66191;53.178;22.058;2023-01-05T09:34:45;17.50;;;5.93;;
28246;SDS011;66191;53.178;22.058;2023-01-05T09:37:17;8.65;;;4.25;;
28246;SDS011;66191;53.178;22.058;2023-01-05T09:39:48;10.70;;;5.57;;
28246;SDS011;66191;53.178;22.058;2023-01-05T09:42:22;9.30;;;3.10;;
28246;SDS011;66191;53.178;22.058;2023-01-05T09:44:58;7.38;;;3.63;;
28246;SDS011;66191;53.178;22.058;2023-01-05T09:47:35;8.80;;;3.80;;
28246;SDS011;66191;53.178;22.058;2023-01-05T09:50:11;9.23;;;4.05;;
28246;SDS011;66191;53.178;22.058;2023-01-05T09:52:48;12.23;;;5.13;;
28246;SDS011;66191;53.178;22.058;2023-01-05T09:55:23;13.63;;;5.40;;
28246;SDS011;66191;53.178;22.058;2023-01-05T09:57:59;20.15;;;8.35;;
28246;SDS011;66191;53.178;22.058;2023-01-05T10:00:36;20.05;;;8.52;;
28246;SDS011;66191;53.178;22.058;2023-01-05T10:03:13;14.50;;;6.43;;
28246;SDS011;66191;53.178;22.058;2023-01-05T10:06:10;16.30;;;7.18;;
28246;SDS011;66191;53.178;22.058;2023-01-05T10:08:45;16.83;;;5.90;;
28246;SDS011;66191;53.178;22.058;2023-01-05T10:11:30;13.95;;;5.00;;
28246;SDS011;66191;53.178;22.058;2023-01-05T10:14:25;22.92;;;7.47;;
28246;SDS011;66191;53.178;22.058;2023-01-05T10:17:01;21.08;;;5.80;;
28246;SDS011;66191;53.178;22.058;2023-01-05T10:19:52;13.18;;;4.57;;
28246;SDS011;66191;53.178;22.058;2023-01-05T10:22:26;14.35;;;4.63;;
28246;SDS011;66191;53.178;22.058;2023-01-05T10:25:13;12.88;;;4.45;;
28246;SDS011;66191;53.178;22.058;2023-01-05T10:27:52;11.30;;;5.03;;
28246;SDS011;66191;53.178;22.058;2023-01-05T10:30:38;12.25;;;6.32;;
28246;SDS011;66191;53.178;22.058;2023-01-05T10:33:19;7.78;;;3.05;;
28246;SDS011;66191;53.178;22.058;2023-01-05T10:36:10;9.57;;;4.78;;
28246;SDS011;66191;53.178;22.058;2023-01-05T10:39:10;12.65;;;7.40;;
28246;SDS011;66191;53.178;22.058;2023-01-05T10:41:54;9.73;;;4.35;;
28246;SDS011;66191;53.178;22.058;2023-01-05T10:47:13;7.18;;;2.85;;
28246;SDS011;66191;53.178;22.058;2023-01-05T10:49:44;4.15;;;1.85;;
28246;SDS011;66191;53.178;22.058;2023-01-05T10:52:18;6.90;;;2.70;;
28246;SDS011;66191;53.178;22.058;2023-01-05T10:54:52;4.38;;;2.08;;
28246;SDS011;66191;53.178;22.058;2023-01-05T10:57:30;7.90;;;2.60;;
28246;SDS011;66191;53.178;22.058;2023-01-05T11:00:06;12.90;;;5.30;;
28246;SDS011;66191;53.178;22.058;2023-01-05T11:02:45;11.77;;;2.92;;
28246;SDS011;66191;53.178;22.058;2023-01-05T11:05:24;12.38;;;3.60;;
28246;SDS011;66191;53.178;22.058;2023-01-05T11:08:00;19.23;;;10.57;;
28246;SDS011;66191;53.178;22.058;2023-01-05T11:10:33;35.28;;;14.48;;
28246;SDS011;66191;53.178;22.058;2023-01-05T11:13:16;35.20;;;14.45;;
28246;SDS011;66191;53.178;22.058;2023-01-05T11:15:52;52.67;;;18.10;;
28246;SDS011;66191;53.178;22.058;2023-01-05T11:18:29;66.85;;;43.65;;
28246;SDS011;66191;53.178;22.058;2023-01-05T11:21:05;34.60;;;23.13;;
28246;SDS011;66191;53.178;22.058;2023-01-05T11:23:39;20.63;;;18.38;;
28246;SDS011;66191;53.178;22.058;2023-01-05T11:26:19;20.20;;;16.85;;
28246;SDS011;66191;53.178;22.058;2023-01-05T11:29:11;20.85;;;12.30;;
28246;SDS011;66191;53.178;22.058;2023-01-05T11:31:44;10.82;;;5.15;;
28246;SDS011;66191;53.178;22.058;2023-01-05T11:37:12;36.53;;;28.58;;
28246;SDS011;66191;53.178;22.058;2023-01-05T11:39:53;87.37;;;73.03;;
28246;SDS011;66191;53.178;22.058;2023-01-05T11:42:29;32.95;;;24.67;;
28246;SDS011;66191;53.178;22.058;2023-01-05T11:45:16;16.77;;;7.07;;
28246;SDS011;66191;53.178;22.058;2023-01-05T11:47:51;22.40;;;15.60;;
28246;SDS011;66191;53.178;22.058;2023-01-05T11:50:27;24.98;;;11.43;;
28246;SDS011;66191;53.178;22.058;2023-01-05T11:53:02;19.30;;;9.10;;
28246;SDS011;66191;53.178;22.058;2023-01-05T11:55:33;33.40;;;16.00;;
28246;SDS011;66191;53.178;22.058;2023-01-05T11:58:12;20.33;;;10.13;;
28246;SDS011;66191;53.178;22.058;2023-01-05T12:00:59;30.17;;;18.98;;
28246;SDS011;66191;53.178;22.058;2023-01-05T12:06:54;14.80;;;10.48;;
28246;SDS011;66191;53.178;22.058;2023-01-05T12:09:36;28.05;;;23.08;;
28246;SDS011;66191;53.178;22.058;2023-01-05T12:12:11;27.05;;;21.40;;
28246;SDS011;66191;53.178;22.058;2023-01-05T12:18:09;12.93;;;8.63;;
28246;SDS011;66191;53.178;22.058;2023-01-05T12:21:01;22.48;;;12.52;;
28246;SDS011;66191;53.178;22.058;2023-01-05T12:23:49;11.77;;;8.63;;
28246;SDS011;66191;53.178;22.058;2023-01-05T12:26:32;20.55;;;12.80;;
28246;SDS011;66191;53.178;22.058;2023-01-05T12:29:35;13.27;;;5.55;;
28246;SDS011;66191;53.178;22.058;2023-01-05T12:32:41;16.48;;;6.07;;
28246;SDS011;66191;53.178;22.058;2023-01-05T12:35:45;13.48;;;5.22;;
28246;SDS011;66191;53.178;22.058;2023-01-05T12:38:35;16.20;;;6.40;;
28246;SDS011;66191;53.178;22.058;2023-01-05T12:41:26;16.98;;;7.50;;
28246;SDS011;66191;53.178;22.058;2023-01-05T12:47:15;23.83;;;10.25;;
28246;SDS011;66191;53.178;22.058;2023-01-05T12:50:02;18.95;;;7.35;;
28246;SDS011;66191;53.178;22.058;2023-01-05T12:52:50;14.70;;;5.72;;
28246;SDS011;66191;53.178;22.058;2023-01-05T12:55:26;32.05;;;17.90;;
28246;SDS011;66191;53.178;22.058;2023-01-05T12:58:05;43.85;;;23.40;;
28246;SDS011;66191;53.178;22.058;2023-01-05T13:00:42;63.85;;;34.45;;
28246;SDS011;66191;53.178;22.058;2023-01-05T13:03:16;57.67;;;27.02;;
28246;SDS011;66191;53.178;22.058;2023-01-05T13:05:55;63.22;;;32.38;;
28246;SDS011;66191;53.178;22.058;2023-01-05T13:08:32;49.35;;;20.30;;
28246;SDS011;66191;53.178;22.058;2023-01-05T13:11:09;43.20;;;16.02;;
28246;SDS011;66191;53.178;22.058;2023-01-05T13:13:50;36.67;;;15.48;;
28246;SDS011;66191;53.178;22.058;2023-01-05T13:16:26;51.72;;;27.98;;
28246;SDS011;66191;53.178;22.058;2023-01-05T13:19:03;38.70;;;21.67;;
28246;SDS011;66191;53.178;22.058;2023-01-05T13:21:40;43.33;;;23.02;;
28246;SDS011;66191;53.178;22.058;2023-01-05T13:24:14;29.63;;;14.07;;
28246;SDS011;66191;53.178;22.058;2023-01-05T13:26:54;126.18;;;79.60;;
28246;SDS011;66191;53.178;22.058;2023-01-05T13:29:32;90.00;;;70.60;;
28246;SDS011;66191;53.178;22.058;2023-01-05T13:32:18;56.63;;;36.22;;
28246;SDS011;66191;53.178;22.058;2023-01-05T13:35:08;25.25;;;12.70;;
28246;SDS011;66191;53.178;22.058;2023-01-05T13:38:05;36.85;;;19.05;;
28246;SDS011;66191;53.178;22.058;2023-01-05T13:40:58;31.30;;;13.38;;
28246;SDS011;66191;53.178;22.058;2023-01-05T13:43:42;21.55;;;10.00;;
28246;SDS011;66191;53.178;22.058;2023-01-05T13:49:47;21.80;;;12.00;;
28246;SDS011;66191;53.178;22.058;2023-01-05T13:52:37;22.27;;;12.02;;
28246;SDS011;66191;53.178;22.058;2023-01-05T13:55:27;27.25;;;22.45;;
28246;SDS011;66191;53.178;22.058;2023-01-05T13:58:00;26.55;;;17.45;;
28246;SDS011;66191;53.178;22.058;2023-01-05T14:00:32;26.85;;;15.90;;
28246;SDS011;66191;53.178;22.058;2023-01-05T14:03:17;49.92;;;33.15;;
28246;SDS011;66191;53.178;22.058;2023-01-05T14:05:54;45.78;;;33.13;;
28246;SDS011;66191;53.178;22.058;2023-01-05T14:08:29;42.95;;;26.00;;
28246;SDS011;66191;53.178;22.058;2023-01-05T14:11:11;26.63;;;13.98;;
28246;SDS011;66191;53.178;22.058;2023-01-05T14:13:45;36.70;;;20.85;;
28246;SDS011;66191;53.178;22.058;2023-01-05T14:19:23;27.50;;;14.52;;
28246;SDS011;66191;53.178;22.058;2023-01-05T14:22:01;74.00;;;38.05;;
28246;SDS011;66191;53.178;22.058;2023-01-05T14:24:35;89.47;;;49.92;;
28246;SDS011;66191;53.178;22.058;2023-01-05T14:27:16;150.07;;;97.15;;
28246;SDS011;66191;53.178;22.058;2023-01-05T14:29:57;66.80;;;40.83;;
28246;SDS011;66191;53.178;22.058;2023-01-05T14:32:31;162.23;;;100.22;;
28246;SDS011;66191;53.178;22.058;2023-01-05T14:35:16;214.02;;;119.22;;
28246;SDS011;66191;53.178;22.058;2023-01-05T14:38:04;178.30;;;95.90;;
28246;SDS011;66191;53.178;22.058;2023-01-05T14:40:44;143.97;;;77.20;;
28246;SDS011;66191;53.178;22.058;2023-01-05T14:43:24;103.07;;;56.60;;
28246;SDS011;66191;53.178;22.058;2023-01-05T14:45:59;68.80;;;31.92;;
28246;SDS011;66191;53.178;22.058;2023-01-05T14:48:38;60.60;;;24.63;;
28246;SDS011;66191;53.178;22.058;2023-01-05T14:51:23;56.50;;;24.63;;
28246;SDS011;66191;53.178;22.058;2023-01-05T14:53:58;79.00;;;33.22;;
28246;SDS011;66191;53.178;22.058;2023-01-05T14:56:31;68.10;;;27.80;;
28246;SDS011;66191;53.178;22.058;2023-01-05T14:59:05;98.45;;;41.25;;
28246;SDS011;66191;53.178;22.058;2023-01-05T15:01:48;80.18;;;32.30;;
28246;SDS011;66191;53.178;22.058;2023-01-05T15:04:23;69.53;;;31.02;;
28246;SDS011;66191;53.178;22.058;2023-01-05T15:07:03;84.78;;;33.08;;
28246;SDS011;66191;53.178;22.058;2023-01-05T15:10:02;51.63;;;21.63;;
28246;SDS011;66191;53.178;22.058;2023-01-05T15:12:48;37.33;;;16.23;;
28246;SDS011;66191;53.178;22.058;2023-01-05T15:15:35;52.70;;;22.15;;
28246;SDS011;66191;53.178;22.058;2023-01-05T15:27:29;35.90;;;18.05;;
28246;SDS011;66191;53.178;22.058;2023-01-05T15:30:16;35.58;;;21.70;;
28246;SDS011;66191;53.178;22.058;2023-01-05T15:33:02;53.92;;;32.08;;
28246;SDS011;66191;53.178;22.058;2023-01-05T15:35:41;44.17;;;23.15;;
28246;SDS011;66191;53.178;22.058;2023-01-05T15:38:18;62.45;;;34.22;;
28246;SDS011;66191;53.178;22.058;2023-01-05T15:40:57;39.25;;;20.58;;
28246;SDS011;66191;53.178;22.058;2023-01-05T15:43:31;63.10;;;30.48;;
28246;SDS011;66191;53.178;22.058;2023-01-05T15:46:03;51.97;;;28.08;;
28246;SDS011;66191;53.178;22.058;2023-01-05T15:48:36;42.15;;;23.40;;
28246;SDS011;66191;53.178;22.058;2023-01-05T15:51:10;34.38;;;18.30;;
28246;SDS011;66191;53.178;22.058;2023-01-05T15:53:53;32.85;;;18.08;;
28246;SDS011;66191;53.178;22.058;2023-01-05T15:56:30;31.35;;;16.52;;
28246;SDS011;66191;53.178;22.058;2023-01-05T15:59:03;29.00;;;15.27;;
28246;SDS011;66191;53.178;22.058;2023-01-05T16:01:50;27.60;;;14.50;;
28246;SDS011;66191;53.178;22.058;2023-01-05T16:04:22;32.58;;;16.10;;
28246;SDS011;66191;53.178;22.058;2023-01-05T16:06:55;32.00;;;15.75;;
28246;SDS011;66191;53.178;22.058;2023-01-05T16:09:30;31.25;;;14.43;;
28246;SDS011;66191;53.178;22.058;2023-01-05T16:12:07;32.08;;;15.38;;